Time;durP1;ratioP1;P1;durP2;ratioP2;P2;SDS_P1;SDS_P2;PMS_P1;PMS_P2;Temp;Humidity;BMP_temperature;BMP_pressure;BME280_temperature;BME280_humidity;BME280_pressure;Samples;Min_cycle;Max_cycle;Signal;HPM_P1;HPM_P2
2023/06/02 00:02:13;;;;;;;4.05;3.15;;;;;;;;;;4984605;28;20108;-77
2023/06/02 00:04:40;;;;;;;4.25;2.60;;;;;;;;;;5021630;28;20071;-78
2023/06/02 00:07:07;;;;;;;4.55;2.05;;;;;;;;;;5065626;28;20432;-77
2023/06/02 00:09:37;;;;;;;5.30;2.40;;;;;;;;;;5056684;28;20524;-79
2023/06/02 00:12:03;;;;;;;6.03;3.13;;;;;;;;;;5069826;28;20717;-80
2023/06/02 00:14:29;;;;;;;4.75;2.13;;;;;;;;;;5061170;28;20052;-80
2023/06/02 00:16:57;;;;;;;2.83;1.88;;;;;;;;;;5069963;28;20052;-79
2023/06/02 00:19:23;;;;;;;3.15;2.25;;;;;;;;;;5062772;28;20032;-78
2023/06/02 00:21:49;;;;;;;5.38;3.08;;;;;;;;;;5043445;28;20047;-80
2023/06/02 00:24:14;;;;;;;6.55;3.50;;;;;;;;;;5058137;28;20036;-78
2023/06/02 00:26:39;;;;;;;4.47;2.72;;;;;;;;;;5070994;28;20074;-81
2023/06/02 00:29:05;;;;;;;7.05;3.00;;;;;;;;;;5061461;28;20040;-78
2023/06/02 00:31:30;;;;;;;5.93;3.08;;;;;;;;;;5071326;28;20590;-77
2023/06/02 00:33:56;;;;;;;6.88;3.55;;;;;;;;;;5072930;28;20035;-79
2023/06/02 00:36:21;;;;;;;5.75;3.40;;;;;;;;;;5062547;28;20090;-79
2023/06/02 00:38:46;;;;;;;4.25;2.08;;;;;;;;;;5055329;28;20097;-79
2023/06/02 00:41:12;;;;;;;3.58;2.40;;;;;;;;;;5070996;28;20032;-77
2023/06/02 00:43:37;;;;;;;1.88;1.67;;;;;;;;;;5058714;28;20064;-79
2023/06/02 00:46:03;;;;;;;2.67;1.70;;;;;;;;;;5072734;28;20048;-77
2023/06/02 00:48:28;;;;;;;5.28;3.00;;;;;;;;;;5072292;28;20040;-77
2023/06/02 00:50:54;;;;;;;6.65;3.35;;;;;;;;;;5059712;28;20051;-80
2023/06/02 00:53:19;;;;;;;6.47;3.33;;;;;;;;;;5061653;28;20513;-78
2023/06/02 00:55:46;;;;;;;6.00;3.13;;;;;;;;;;5068197;28;20047;-78
2023/06/02 00:58:13;;;;;;;5.15;2.78;;;;;;;;;;5024868;28;20577;-77
2023/06/02 01:00:41;;;;;;;7.93;3.30;;;;;;;;;;5068078;28;20717;-80
2023/06/02 01:03:07;;;;;;;4.55;2.97;;;;;;;;;;5072723;28;20047;-76
2023/06/02 01:05:34;;;;;;;6.10;3.38;;;;;;;;;;5062278;28;20040;-79
2023/06/02 01:08:04;;;;;;;5.70;3.97;;;;;;;;;;5071397;28;20032;-77
2023/06/02 01:10:31;;;;;;;2.95;2.03;;;;;;;;;;5059779;28;20032;-78
2023/06/02 01:12:57;;;;;;;7.50;3.20;;;;;;;;;;5071495;28;20059;-79
2023/06/02 01:15:23;;;;;;;8.00;3.85;;;;;;;;;;5067565;28;20103;-78
2023/06/02 01:17:50;;;;;;;6.82;3.53;;;;;;;;;;5032143;28;20051;-79
2023/06/02 01:20:21;;;;;;;7.35;3.00;;;;;;;;;;5070386;28;20061;-79
2023/06/02 01:23:06;;;;;;;3.78;1.90;;;;;;;;;;5043761;28;20534;-80
2023/06/02 01:25:32;;;;;;;3.03;2.67;;;;;;;;;;5068026;28;20040;-78
2023/06/02 01:27:58;;;;;;;7.28;3.80;;;;;;;;;;5070128;28;20058;-76
2023/06/02 01:30:24;;;;;;;4.60;2.83;;;;;;;;;;5063067;28;20036;-80
2023/06/02 01:33:03;;;;;;;5.07;3.00;;;;;;;;;;5060414;28;20035;-81
2023/06/02 01:35:31;;;;;;;5.80;3.38;;;;;;;;;;5062833;28;21218;-79
2023/06/02 01:37:59;;;;;;;7.53;4.32;;;;;;;;;;5069769;28;20567;-77
2023/06/02 01:40:27;;;;;;;5.78;3.30;;;;;;;;;;5050985;28;20060;-79
2023/06/02 01:42:53;;;;;;;5.75;3.85;;;;;;;;;;5060287;28;20066;-80
2023/06/02 01:45:20;;;;;;;7.15;3.80;;;;;;;;;;5072533;28;20546;-78
2023/06/02 01:47:45;;;;;;;4.47;3.33;;;;;;;;;;5051975;28;20121;-78
2023/06/02 01:50:11;;;;;;;2.42;1.98;;;;;;;;;;5059749;28;20061;-78
2023/06/02 01:52:36;;;;;;;2.13;1.92;;;;;;;;;;5069741;28;20055;-78
2023/06/02 01:55:03;;;;;;;6.93;4.00;;;;;;;;;;5066632;28;20028;-78
2023/06/02 01:57:29;;;;;;;6.70;4.38;;;;;;;;;;5069132;28;20401;-79
2023/06/02 01:59:55;;;;;;;6.25;3.08;;;;;;;;;;5054879;28;22010;-77
2023/06/02 02:02:20;;;;;;;7.53;3.85;;;;;;;;;;5057882;28;20121;-78
2023/06/02 02:04:46;;;;;;;5.57;3.22;;;;;;;;;;5070664;28;20051;-79
2023/06/02 02:07:11;;;;;;;6.15;2.80;;;;;;;;;;5070553;28;20500;-80
2023/06/02 02:09:38;;;;;;;5.32;3.33;;;;;;;;;;5059324;28;20381;-79
2023/06/02 02:12:04;;;;;;;5.32;2.50;;;;;;;;;;5053286;28;20097;-76
2023/06/02 02:14:30;;;;;;;5.00;2.67;;;;;;;;;;5072170;28;20504;-79
2023/06/02 02:16:56;;;;;;;3.17;1.70;;;;;;;;;;5063540;28;20131;-78
2023/06/02 02:19:23;;;;;;;4.72;3.15;;;;;;;;;;5071486;28;20062;-80
2023/06/02 02:21:48;;;;;;;7.05;2.65;;;;;;;;;;5064663;28;20056;-77
2023/06/02 02:24:16;;;;;;;5.55;3.35;;;;;;;;;;5041511;28;20034;-78
2023/06/02 02:26:43;;;;;;;2.33;2.13;;;;;;;;;;5069934;28;20043;-79
2023/06/02 02:29:08;;;;;;;4.05;2.30;;;;;;;;;;5072884;28;20482;-79
2023/06/02 02:31:34;;;;;;;4.70;2.90;;;;;;;;;;5062827;28;20067;-80
2023/06/02 02:34:00;;;;;;;3.25;2.38;;;;;;;;;;5070245;28;20074;-76
2023/06/02 02:36:26;;;;;;;4.93;3.17;;;;;;;;;;5069610;28;20516;-79
2023/06/02 02:38:51;;;;;;;4.65;2.92;;;;;;;;;;5058066;28;20123;-79
2023/06/02 02:41:17;;;;;;;6.90;2.47;;;;;;;;;;5069466;28;20035;-80
2023/06/02 02:43:42;;;;;;;6.78;2.70;;;;;;;;;;5050300;28;20032;-78
2023/06/02 02:46:08;;;;;;;5.38;2.25;;;;;;;;;;5060345;28;20061;-77
2023/06/02 02:48:33;;;;;;;4.95;1.98;;;;;;;;;;5071864;28;20829;-80
2023/06/02 02:50:59;;;;;;;6.50;3.35;;;;;;;;;;5053750;28;20040;-77
2023/06/02 02:53:31;;;;;;;7.10;2.90;;;;;;;;;;5056149;28;20057;-78
2023/06/02 02:55:57;;;;;;;8.48;3.08;;;;;;;;;;5067890;28;20504;-79
2023/06/02 02:58:24;;;;;;;4.30;2.63;;;;;;;;;;5056972;28;20042;-76
2023/06/02 03:00:50;;;;;;;6.60;2.92;;;;;;;;;;5055805;28;20134;-79
2023/06/02 03:03:15;;;;;;;6.03;2.72;;;;;;;;;;5070472;28;20470;-78
2023/06/02 03:05:41;;;;;;;7.53;2.60;;;;;;;;;;5057361;28;20671;-80
2023/06/02 03:08:09;;;;;;;12.52;3.00;;;;;;;;;;5071208;28;20101;-79
2023/06/02 03:10:35;;;;;;;10.13;3.70;;;;;;;;;;5071437;28;20481;-79
2023/06/02 03:13:01;;;;;;;5.53;2.22;;;;;;;;;;5055234;28;20040;-80
2023/06/02 03:15:27;;;;;;;3.58;1.70;;;;;;;;;;5070274;28;20048;-80
2023/06/02 03:17:55;;;;;;;9.25;3.10;;;;;;;;;;5069285;28;20040;-77
2023/06/02 03:20:21;;;;;;;4.05;2.45;;;;;;;;;;5043969;28;20049;-80
2023/06/02 03:22:47;;;;;;;8.48;2.85;;;;;;;;;;5069923;28;20040;-77
2023/06/02 03:25:13;;;;;;;9.32;2.65;;;;;;;;;;5061237;28;20040;-78
2023/06/02 03:27:38;;;;;;;7.28;2.40;;;;;;;;;;5056092;28;20041;-77
2023/06/02 03:30:04;;;;;;;8.25;2.55;;;;;;;;;;5043224;28;20036;-77
2023/06/02 03:32:30;;;;;;;6.10;2.30;;;;;;;;;;5061280;28;20063;-77
2023/06/02 03:34:55;;;;;;;6.07;2.40;;;;;;;;;;5060520;28;20101;-77
2023/06/02 03:37:21;;;;;;;7.60;2.40;;;;;;;;;;5062439;28;20040;-77
2023/06/02 03:39:46;;;;;;;9.50;3.10;;;;;;;;;;5049438;28;20043;-77
2023/06/02 03:42:11;;;;;;;4.38;2.25;;;;;;;;;;5071560;28;20138;-77
2023/06/02 03:44:37;;;;;;;8.13;2.60;;;;;;;;;;5068192;28;20042;-77
2023/06/02 03:47:02;;;;;;;5.05;2.78;;;;;;;;;;5061642;28;20039;-78
2023/06/02 03:49:29;;;;;;;5.25;2.85;;;;;;;;;;5063554;28;20112;-77
2023/06/02 03:51:55;;;;;;;7.55;2.33;;;;;;;;;;5067914;28;20036;-77
2023/06/02 03:54:20;;;;;;;4.85;1.98;;;;;;;;;;5062038;28;20381;-77
2023/06/02 03:56:46;;;;;;;10.52;2.38;;;;;;;;;;5067375;28;20043;-77
2023/06/02 03:59:11;;;;;;;3.25;1.48;;;;;;;;;;5067032;28;20028;-78
2023/06/02 04:01:39;;;;;;;7.65;2.40;;;;;;;;;;5041229;28;20078;-78
2023/06/02 04:04:04;;;;;;;4.93;1.80;;;;;;;;;;5067462;28;20067;-78
2023/06/02 04:06:30;;;;;;;9.18;2.15;;;;;;;;;;5069856;28;20131;-78
2023/06/02 04:08:55;;;;;;;11.18;2.70;;;;;;;;;;5041333;28;20096;-77
2023/06/02 04:11:22;;;;;;;6.65;1.75;;;;;;;;;;5065237;28;20039;-77
2023/06/02 04:13:48;;;;;;;5.32;2.10;;;;;;;;;;5066647;28;20044;-78
2023/06/02 04:16:14;;;;;;;8.40;2.45;;;;;;;;;;5061707;28;20032;-77
2023/06/02 04:18:39;;;;;;;5.65;2.13;;;;;;;;;;5073928;28;20044;-78
2023/06/02 04:21:05;;;;;;;6.35;2.20;;;;;;;;;;5069128;28;20543;-77
2023/06/02 04:23:30;;;;;;;8.68;2.40;;;;;;;;;;5030072;28;20593;-77
2023/06/02 04:25:56;;;;;;;9.23;2.35;;;;;;;;;;5060209;28;20067;-77
2023/06/02 04:28:21;;;;;;;4.63;2.15;;;;;;;;;;5066434;28;20043;-77
2023/06/02 04:30:55;;;;;;;10.35;2.13;;;;;;;;;;5057144;28;20040;-77
2023/06/02 04:33:21;;;;;;;9.65;2.72;;;;;;;;;;5067118;28;20032;-78
2023/06/02 04:35:47;;;;;;;5.43;1.98;;;;;;;;;;5056803;28;20701;-78
2023/06/02 04:38:13;;;;;;;8.43;2.83;;;;;;;;;;5063176;28;20040;-78
2023/06/02 04:40:39;;;;;;;10.80;2.40;;;;;;;;;;5062157;28;20540;-78
2023/06/02 04:43:05;;;;;;;5.75;1.85;;;;;;;;;;5057099;28;20032;-78
2023/06/02 04:45:30;;;;;;;4.50;2.35;;;;;;;;;;5066816;28;20054;-78
2023/06/02 04:47:55;;;;;;;8.20;3.38;;;;;;;;;;5066938;28;20090;-78
2023/06/02 04:50:21;;;;;;;9.45;3.00;;;;;;;;;;5055813;28;20447;-78
2023/06/02 04:52:46;;;;;;;8.30;2.00;;;;;;;;;;5052377;28;20064;-78
2023/06/02 04:55:12;;;;;;;9.10;2.50;;;;;;;;;;5053751;28;20158;-77
2023/06/02 04:57:38;;;;;;;6.70;2.33;;;;;;;;;;5052912;28;20135;-78
2023/06/02 05:00:04;;;;;;;6.30;2.35;;;;;;;;;;5056574;28;20711;-77
2023/06/02 05:02:30;;;;;;;5.57;2.40;;;;;;;;;;5062080;28;20044;-78
2023/06/02 05:04:56;;;;;;;11.52;2.97;;;;;;;;;;5051970;28;20054;-79
2023/06/02 05:07:22;;;;;;;2.15;1.38;;;;;;;;;;5045885;28;20606;-78
2023/06/02 05:09:47;;;;;;;7.60;2.40;;;;;;;;;;5064153;28;20123;-78
2023/06/02 05:12:12;;;;;;;9.07;2.42;;;;;;;;;;5052439;28;20040;-79
2023/06/02 05:14:38;;;;;;;6.22;2.13;;;;;;;;;;5054587;28;20060;-78
2023/06/02 05:17:04;;;;;;;4.35;2.42;;;;;;;;;;5053700;28;20040;-77
2023/06/02 05:19:33;;;;;;;13.02;3.58;;;;;;;;;;5064855;28;20046;-78
2023/06/02 05:21:59;;;;;;;8.48;2.50;;;;;;;;;;5064142;28;20098;-79
2023/06/02 05:24:24;;;;;;;7.43;2.30;;;;;;;;;;5057834;28;20496;-78
2023/06/02 05:26:49;;;;;;;2.88;1.45;;;;;;;;;;5065164;28;20713;-79
2023/06/02 05:29:15;;;;;;;5.18;2.10;;;;;;;;;;5064642;28;20064;-78
2023/06/02 05:31:40;;;;;;;8.10;2.60;;;;;;;;;;5053238;28;20408;-78
2023/06/02 05:34:06;;;;;;;2.97;1.58;;;;;;;;;;5066301;28;20036;-79
2023/06/02 05:36:31;;;;;;;4.43;1.75;;;;;;;;;;5063354;28;20036;-79
2023/06/02 05:38:57;;;;;;;4.93;2.15;;;;;;;;;;5053251;28;20044;-79
2023/06/02 05:41:24;;;;;;;6.65;2.35;;;;;;;;;;5066416;28;20028;-79
2023/06/02 05:43:50;;;;;;;7.95;2.45;;;;;;;;;;5068125;28;20044;-79
2023/06/02 05:46:15;;;;;;;6.78;2.10;;;;;;;;;;5059384;28;20123;-79
2023/06/02 05:48:40;;;;;;;8.10;2.28;;;;;;;;;;5070759;28;20047;-79
2023/06/02 05:51:06;;;;;;;7.25;2.25;;;;;;;;;;5059872;28;20040;-79
2023/06/02 05:53:31;;;;;;;4.22;1.52;;;;;;;;;;5056372;28;20056;-79
2023/06/02 05:55:56;;;;;;;4.20;1.63;;;;;;;;;;5068427;28;20036;-79
2023/06/02 05:58:22;;;;;;;7.88;2.80;;;;;;;;;;5068005;28;20043;-79
2023/06/02 06:00:47;;;;;;;2.95;1.35;;;;;;;;;;5056630;28;20069;-79
2023/06/02 06:03:14;;;;;;;7.45;3.08;;;;;;;;;;5056182;28;20048;-79
2023/06/02 06:05:40;;;;;;;11.60;2.63;;;;;;;;;;5058403;28;20134;-79
2023/06/02 06:08:05;;;;;;;4.53;2.33;;;;;;;;;;5058098;28;20177;-79
2023/06/02 06:10:30;;;;;;;5.43;2.05;;;;;;;;;;5068462;28;20036;-79
2023/06/02 06:12:56;;;;;;;4.50;1.70;;;;;;;;;;5067304;28;20131;-80
2023/06/02 06:15:21;;;;;;;12.25;3.15;;;;;;;;;;5059089;28;20033;-79
2023/06/02 06:17:53;;;;;;;3.67;1.90;;;;;;;;;;5069706;28;20046;-79
2023/06/02 06:20:20;;;;;;;9.68;2.60;;;;;;;;;;5068065;28;20028;-78
2023/06/02 06:22:45;;;;;;;9.63;2.58;;;;;;;;;;5038452;28;20045;-79
2023/06/02 06:25:11;;;;;;;8.95;3.00;;;;;;;;;;5058519;28;20044;-80
2023/06/02 06:27:37;;;;;;;4.35;1.73;;;;;;;;;;5057871;28;20055;-80
2023/06/02 06:30:04;;;;;;;5.22;2.03;;;;;;;;;;5052533;28;20074;-80
2023/06/02 06:32:30;;;;;;;7.82;3.38;;;;;;;;;;5070242;28;20127;-80
2023/06/02 06:34:55;;;;;;;9.65;3.45;;;;;;;;;;5045490;28;20037;-79
2023/06/02 06:37:21;;;;;;;5.00;1.85;;;;;;;;;;5063717;28;20043;-79
2023/06/02 06:39:46;;;;;;;2.20;1.52;;;;;;;;;;5061995;28;20081;-79
2023/06/02 06:42:11;;;;;;;3.92;2.15;;;;;;;;;;5038502;28;20036;-79
2023/06/02 06:44:37;;;;;;;9.25;3.20;;;;;;;;;;5065832;28;20051;-79
2023/06/02 06:47:03;;;;;;;7.43;2.95;;;;;;;;;;5057973;28;20036;-79
2023/06/02 06:49:28;;;;;;;7.28;3.15;;;;;;;;;;5060593;28;20038;-79
2023/06/02 06:51:54;;;;;;;8.02;2.80;;;;;;;;;;5066639;28;20423;-79
2023/06/02 06:54:19;;;;;;;6.05;3.03;;;;;;;;;;5066946;28;20078;-78
2023/06/02 06:56:45;;;;;;;6.03;2.40;;;;;;;;;;5056100;28;20074;-80
2023/06/02 06:59:11;;;;;;;6.05;2.85;;;;;;;;;;5046113;28;20101;-79
2023/06/02 07:01:37;;;;;;;7.68;2.67;;;;;;;;;;5049700;28;20044;-79
2023/06/02 07:04:03;;;;;;;6.07;2.72;;;;;;;;;;5057008;28;20484;-79
2023/06/02 07:06:28;;;;;;;11.18;3.17;;;;;;;;;;5065480;28;20145;-79
2023/06/02 07:08:54;;;;;;;7.68;2.70;;;;;;;;;;5047034;28;20039;-79
2023/06/02 07:11:19;;;;;;;9.35;2.70;;;;;;;;;;5054683;28;20072;-80
2023/06/02 07:13:45;;;;;;;5.03;2.70;;;;;;;;;;5065322;28;20047;-81
2023/06/02 07:16:10;;;;;;;4.88;2.45;;;;;;;;;;5055928;28;20070;-80
2023/06/02 07:18:36;;;;;;;4.20;2.45;;;;;;;;;;5036726;28;20118;-80
2023/06/02 07:21:01;;;;;;;5.95;2.40;;;;;;;;;;5054938;28;20043;-80
2023/06/02 07:23:26;;;;;;;8.82;2.70;;;;;;;;;;5039300;28;20044;-80
2023/06/02 07:25:52;;;;;;;7.13;3.47;;;;;;;;;;5054422;28;20044;-80
2023/06/02 07:28:17;;;;;;;4.53;2.40;;;;;;;;;;5057448;28;20040;-80
2023/06/02 07:30:51;;;;;;;9.52;2.78;;;;;;;;;;5058662;28;20396;-80
2023/06/02 07:33:18;;;;;;;5.18;2.75;;;;;;;;;;5032793;28;20046;-80
2023/06/02 07:35:43;;;;;;;2.85;1.88;;;;;;;;;;5037492;28;20045;-80
2023/06/02 07:38:08;;;;;;;7.70;2.88;;;;;;;;;;5012141;28;20323;-80
2023/06/02 07:40:34;;;;;;;6.88;2.83;;;;;;;;;;5064249;28;20051;-80
2023/06/02 07:42:59;;;;;;;7.10;2.70;;;;;;;;;;5066247;28;20496;-80
2023/06/02 07:45:25;;;;;;;2.83;1.70;;;;;;;;;;5057349;28;20044;-78
2023/06/02 07:47:51;;;;;;;8.43;3.30;;;;;;;;;;5061970;28;20094;-80
2023/06/02 07:50:17;;;;;;;8.07;3.70;;;;;;;;;;5062407;28;20040;-79
2023/06/02 07:52:43;;;;;;;10.02;4.65;;;;;;;;;;5024811;28;20097;-80
2023/06/02 07:55:08;;;;;;;4.00;2.40;;;;;;;;;;5055684;28;20118;-80
2023/06/02 07:57:34;;;;;;;7.22;2.72;;;;;;;;;;5058977;28;20033;-79
2023/06/02 08:00:18;;;;;;;4.22;1.95;;;;;;;;;;5042976;28;20179;-80
2023/06/02 08:02:46;;;;;;;9.02;2.95;;;;;;;;;;5060213;28;20079;-80
2023/06/02 08:05:12;;;;;;;6.50;3.20;;;;;;;;;;5054999;28;20071;-80
2023/06/02 08:07:38;;;;;;;8.55;3.33;;;;;;;;;;5064717;28;20044;-80
2023/06/02 08:10:04;;;;;;;6.38;3.00;;;;;;;;;;5064393;28;20356;-79
2023/06/02 08:12:29;;;;;;;8.40;2.67;;;;;;;;;;5050343;28;22312;-80
2023/06/02 08:14:55;;;;;;;5.63;2.65;;;;;;;;;;5061057;28;20036;-80
2023/06/02 08:17:20;;;;;;;7.90;2.92;;;;;;;;;;5055301;28;20145;-80
2023/06/02 08:19:46;;;;;;;5.65;2.72;;;;;;;;;;5045809;28;20032;-80
2023/06/02 08:22:11;;;;;;;4.72;2.55;;;;;;;;;;5052632;28;20042;-80
2023/06/02 08:24:37;;;;;;;9.20;3.83;;;;;;;;;;5064176;28;20067;-80
2023/06/02 08:27:03;;;;;;;7.32;2.92;;;;;;;;;;5055598;28;20044;-80
2023/06/02 08:29:30;;;;;;;6.32;2.55;;;;;;;;;;5038388;28;20033;-80
2023/06/02 08:31:56;;;;;;;8.02;3.22;;;;;;;;;;5059246;28;20070;-80
2023/06/02 08:34:23;;;;;;;5.95;2.95;;;;;;;;;;5065674;28;20048;-80
2023/06/02 08:36:56;;;;;;;6.03;3.67;;;;;;;;;;5061659;28;20043;-81
2023/06/02 08:39:25;;;;;;;7.85;3.60;;;;;;;;;;5051067;28;20044;-80
2023/06/02 08:41:51;;;;;;;8.35;3.38;;;;;;;;;;5036704;28;20155;-80
2023/06/02 08:44:17;;;;;;;7.53;3.10;;;;;;;;;;5029960;28;20497;-80
2023/06/02 08:46:47;;;;;;;10.98;3.30;;;;;;;;;;5056943;28;20157;-80
2023/06/02 08:49:17;;;;;;;8.77;3.88;;;;;;;;;;5060380;28;20056;-78
2023/06/02 08:51:44;;;;;;;7.97;3.13;;;;;;;;;;5027062;28;20049;-80
2023/06/02 08:54:13;;;;;;;8.10;3.70;;;;;;;;;;5049328;28;20047;-81
2023/06/02 08:56:41;;;;;;;6.97;3.47;;;;;;;;;;5046154;28;20242;-80
2023/06/02 08:59:08;;;;;;;9.68;3.95;;;;;;;;;;5028051;28;20042;-80
2023/06/02 09:01:33;;;;;;;10.23;3.58;;;;;;;;;;5055893;28;20048;-81
2023/06/02 09:03:59;;;;;;;7.13;3.50;;;;;;;;;;5044758;28;20040;-80
2023/06/02 09:06:26;;;;;;;7.13;3.47;;;;;;;;;;5012840;28;20045;-81
2023/06/02 09:08:57;;;;;;;6.57;3.17;;;;;;;;;;5045499;28;20116;-80
2023/06/02 09:11:23;;;;;;;;;;;;;;;;;;5039063;28;20040;-80
2023/06/02 09:13:48;;;;;;;8.50;3.15;;;;;;;;;;5054687;28;19916;-80
2023/06/02 09:16:14;;;;;;;7.13;3.13;;;;;;;;;;5059626;28;20388;-80
2023/06/02 09:18:54;;;;;;;8.95;3.67;;;;;;;;;;5039725;28;20094;-80
2023/06/02 09:21:28;;;;;;;4.50;2.57;;;;;;;;;;5052192;28;20051;-80
2023/06/02 09:23:57;;;;;;;9.60;3.97;;;;;;;;;;5051727;28;20047;-80
2023/06/02 09:26:26;;;;;;;9.20;3.55;;;;;;;;;;5073564;28;20062;-80
2023/06/02 09:29:09;;;;;;;5.72;3.10;;;;;;;;;;5065121;28;20040;-81
2023/06/02 09:31:44;;;;;;;10.98;3.50;;;;;;;;;;5043467;28;20093;-81
2023/06/02 09:34:10;;;;;;;12.13;3.75;;;;;;;;;;5047851;28;20070;-81
2023/06/02 09:36:36;;;;;;;7.38;3.55;;;;;;;;;;5064616;28;20036;-81
2023/06/02 09:39:03;;;;;;;9.68;3.53;;;;;;;;;;5058944;28;20040;-81
2023/06/02 09:41:30;;;;;;;8.02;2.53;;;;;;;;;;5062009;28;20051;-81
2023/06/02 09:43:56;;;;;;;9.18;3.63;;;;;;;;;;5041092;28;20051;-80
2023/06/02 09:46:22;;;;;;;9.75;3.60;;;;;;;;;;5048529;28;20509;-81
2023/06/02 09:48:55;;;;;;;7.55;3.55;;;;;;;;;;5027215;28;20033;-81
2023/06/02 09:51:22;;;;;;;8.63;3.70;;;;;;;;;;5034367;28;20095;-81
2023/06/02 09:53:48;;;;;;;9.25;3.78;;;;;;;;;;5046328;28;20151;-81
2023/06/02 09:56:21;;;;;;;9.80;4.00;;;;;;;;;;5037549;28;20488;-84
2023/06/02 09:58:46;;;;;;;9.38;4.25;;;;;;;;;;5048786;28;20048;-81
2023/06/02 10:01:12;;;;;;;7.72;3.80;;;;;;;;;;5055185;28;20032;-84
2023/06/02 10:03:44;;;;;;;7.75;3.08;;;;;;;;;;5048018;28;20055;-79
2023/06/02 10:06:28;;;;;;;7.30;3.03;;;;;;;;;;5060187;28;20059;-83
2023/06/02 10:09:12;;;;;;;8.55;3.40;;;;;;;;;;5055654;28;20101;-80
2023/06/02 10:11:46;;;;;;;3.78;1.60;;;;;;;;;;5033774;23;20809;-73
2023/06/02 10:14:21;;;;;;;7.78;3.65;;;;;;;;;;5025061;28;20041;-73
2023/06/02 10:16:53;;;;;;;10.35;3.70;;;;;;;;;;5027663;28;20408;-73
2023/06/02 10:19:52;;;;;;;9.40;3.33;;;;;;;;;;5022589;28;20048;-72
2023/06/02 10:22:32;;;;;;;3.13;1.77;;;;;;;;;;5008296;28;20053;-73
2023/06/02 10:25:26;;;;;;;11.75;3.88;;;;;;;;;;5042623;28;20081;-73
2023/06/02 10:27:53;;;;;;;7.80;3.03;;;;;;;;;;5032873;28;20067;-73
2023/06/02 10:30:22;;;;;;;5.00;3.17;;;;;;;;;;5048511;28;20408;-73
2023/06/02 10:32:49;;;;;;;9.68;3.30;;;;;;;;;;5044040;28;20431;-73
2023/06/02 10:35:16;;;;;;;8.93;3.67;;;;;;;;;;5052563;28;20516;-73
2023/06/02 10:37:41;;;;;;;10.95;3.72;;;;;;;;;;5053499;28;20044;-74
2023/06/02 10:40:10;;;;;;;7.88;2.90;;;;;;;;;;5045294;28;20039;-73
2023/06/02 10:42:37;;;;;;;7.28;3.10;;;;;;;;;;5054306;28;20044;-73
2023/06/02 10:45:17;;;;;;;8.50;3.10;;;;;;;;;;5045499;28;20044;-73
2023/06/02 10:47:45;;;;;;;10.30;3.53;;;;;;;;;;4994482;28;20746;-73
2023/06/02 10:50:14;;;;;;;9.95;3.50;;;;;;;;;;5050522;28;20500;-73
2023/06/02 10:53:01;;;;;;;9.60;3.33;;;;;;;;;;5036467;28;20036;-73
2023/06/02 10:55:31;;;;;;;4.05;1.58;;;;;;;;;;5053815;28;20543;-73
2023/06/02 10:57:56;;;;;;;8.18;2.92;;;;;;;;;;5037924;28;20043;-73
2023/06/02 11:00:36;;;;;;;6.65;2.28;;;;;;;;;;5050067;28;20043;-73
2023/06/02 11:03:22;;;;;;;9.38;2.80;;;;;;;;;;5037541;28;20037;-73
2023/06/02 11:05:54;;;;;;;5.75;2.70;;;;;;;;;;5047841;28;20157;-73
2023/06/02 11:08:21;;;;;;;8.02;3.30;;;;;;;;;;5037006;28;20051;-73
2023/06/02 11:10:56;;;;;;;9.48;3.10;;;;;;;;;;5051510;28;20420;-73
2023/06/02 11:13:25;;;;;;;10.45;2.92;;;;;;;;;;5041352;28;20029;-73
2023/06/02 11:15:54;;;;;;;8.83;3.17;;;;;;;;;;5037666;28;20040;-73
2023/06/02 11:18:23;;;;;;;6.70;2.45;;;;;;;;;;5044209;28;20178;-73
2023/06/02 11:20:50;;;;;;;3.05;1.42;;;;;;;;;;5039963;28;20054;-73
2023/06/02 11:23:17;;;;;;;9.55;2.67;;;;;;;;;;5053685;28;20050;-73
2023/06/02 11:25:43;;;;;;;9.10;3.00;;;;;;;;;;5052176;28;20170;-73
2023/06/02 11:28:22;;;;;;;8.27;2.83;;;;;;;;;;5024774;28;20049;-73
2023/06/02 11:31:17;;;;;;;9.85;3.08;;;;;;;;;;5033308;28;20047;-73
2023/06/02 11:33:51;;;;;;;9.77;3.33;;;;;;;;;;5023523;28;20154;-73
2023/06/02 11:36:39;;;;;;;10.13;2.80;;;;;;;;;;5040777;28;20032;-73
2023/06/02 11:39:09;;;;;;;11.60;2.92;;;;;;;;;;5043849;28;20033;-73
2023/06/02 11:41:35;;;;;;;7.82;3.13;;;;;;;;;;5049604;28;20490;-73
2023/06/02 11:44:09;;;;;;;7.13;2.50;;;;;;;;;;5043287;28;20582;-73
2023/06/02 11:46:36;;;;;;;6.35;2.63;;;;;;;;;;5039932;28;20048;-73
2023/06/02 11:49:02;;;;;;;6.50;2.72;;;;;;;;;;5054827;28;20071;-73
2023/06/02 11:51:27;;;;;;;7.03;2.70;;;;;;;;;;5056589;28;20807;-73
2023/06/02 11:54:02;;;;;;;9.07;2.83;;;;;;;;;;5053255;28;20065;-73
2023/06/02 11:56:28;;;;;;;13.35;2.35;;;;;;;;;;5046184;28;20460;-73
2023/06/02 11:58:54;;;;;;;7.90;2.20;;;;;;;;;;5051166;28;20561;-73
2023/06/02 12:01:21;;;;;;;6.57;2.33;;;;;;;;;;5044707;28;20045;-73
2023/06/02 12:04:06;;;;;;;8.63;1.90;;;;;;;;;;5053180;28;20045;-73
2023/06/02 12:06:31;;;;;;;4.43;1.80;;;;;;;;;;5059021;28;20109;-73
2023/06/02 12:09:10;;;;;;;6.93;2.00;;;;;;;;;;5051049;28;20044;-73
2023/06/02 12:11:36;;;;;;;5.60;2.10;;;;;;;;;;5051986;28;20097;-73
2023/06/02 12:14:06;;;;;;;7.82;2.17;;;;;;;;;;5058837;28;20036;-73
2023/06/02 12:16:33;;;;;;;8.48;2.13;;;;;;;;;;5056734;28;20060;-73
2023/06/02 12:19:20;;;;;;;6.40;1.92;;;;;;;;;;5049033;28;20041;-74
2023/06/02 12:21:46;;;;;;;5.15;2.00;;;;;;;;;;5057758;28;20040;-73
2023/06/02 12:24:38;;;;;;;4.80;2.22;;;;;;;;;;5029068;28;20119;-73
2023/06/02 12:27:08;;;;;;;7.30;2.33;;;;;;;;;;5043905;28;20546;-73
2023/06/02 12:29:34;;;;;;;4.18;2.08;;;;;;;;;;5046651;28;20043;-73
2023/06/02 12:32:02;;;;;;;7.75;2.70;;;;;;;;;;5059485;28;20149;-73
2023/06/02 12:34:29;;;;;;;4.32;2.42;;;;;;;;;;5046670;28;20063;-73
2023/06/02 12:36:55;;;;;;;6.22;2.40;;;;;;;;;;5057821;28;20079;-73
2023/06/02 12:39:21;;;;;;;5.22;2.38;;;;;;;;;;5046071;28;20556;-72
2023/06/02 12:41:46;;;;;;;4.45;2.80;;;;;;;;;;5050057;28;20396;-73
2023/06/02 12:44:12;;;;;;;4.43;2.67;;;;;;;;;;5060436;28;20115;-73
2023/06/02 12:46:38;;;;;;;7.00;2.92;;;;;;;;;;5059279;28;20056;-73
2023/06/02 12:49:04;;;;;;;2.58;2.08;;;;;;;;;;5042415;28;20079;-73
2023/06/02 12:51:31;;;;;;;6.97;2.85;;;;;;;;;;5064186;28;20044;-72
2023/06/02 12:53:57;;;;;;;5.28;2.75;;;;;;;;;;5061754;28;20040;-73
2023/06/02 12:56:22;;;;;;;5.65;2.60;;;;;;;;;;5051702;28;20119;-73
2023/06/02 12:58:48;;;;;;;5.82;3.17;;;;;;;;;;5060716;28;20201;-73
2023/06/02 13:01:13;;;;;;;6.88;2.72;;;;;;;;;;5062221;28;20044;-73
2023/06/02 13:03:38;;;;;;;5.80;2.90;;;;;;;;;;5050482;28;20055;-72
2023/06/02 13:06:06;;;;;;;7.43;2.58;;;;;;;;;;5056253;28;20126;-73
2023/06/02 13:08:32;;;;;;;5.43;2.38;;;;;;;;;;5060416;28;20055;-73
2023/06/02 13:10:58;;;;;;;5.53;2.53;;;;;;;;;;5047450;28;20128;-73
2023/06/02 13:13:26;;;;;;;5.30;2.03;;;;;;;;;;5059413;28;20194;-73
2023/06/02 13:15:53;;;;;;;7.05;2.03;;;;;;;;;;5046460;28;20405;-73
2023/06/02 13:18:19;;;;;;;6.43;2.10;;;;;;;;;;5057813;28;20040;-73
2023/06/02 13:20:45;;;;;;;5.50;1.88;;;;;;;;;;5057204;28;20040;-73
2023/06/02 13:23:11;;;;;;;8.98;2.55;;;;;;;;;;5056653;28;20424;-72
2023/06/02 13:25:37;;;;;;;6.80;1.90;;;;;;;;;;5044431;28;20032;-73
2023/06/02 13:28:02;;;;;;;4.53;2.00;;;;;;;;;;5050838;28;20601;-73
2023/06/02 13:30:28;;;;;;;4.22;1.88;;;;;;;;;;5048942;28;20044;-72
2023/06/02 13:32:54;;;;;;;5.28;1.50;;;;;;;;;;5049172;28;20666;-72
2023/06/02 13:35:19;;;;;;;7.13;2.05;;;;;;;;;;5062642;28;20040;-73
2023/06/02 13:37:45;;;;;;;3.92;1.60;;;;;;;;;;5051570;28;20060;-72
2023/06/02 13:40:12;;;;;;;3.72;1.55;;;;;;;;;;5062713;28;20036;-72
2023/06/02 13:42:38;;;;;;;7.20;1.80;;;;;;;;;;5058087;28;20109;-73
2023/06/02 13:45:03;;;;;;;6.40;1.85;;;;;;;;;;5047995;28;20039;-73
2023/06/02 13:47:29;;;;;;;3.88;1.75;;;;;;;;;;5054741;28;20051;-72
2023/06/02 13:49:54;;;;;;;4.82;1.63;;;;;;;;;;5058640;28;20032;-72
2023/06/02 13:52:20;;;;;;;4.45;1.88;;;;;;;;;;5051208;28;20029;-72
2023/06/02 13:54:45;;;;;;;4.90;2.08;;;;;;;;;;5052756;28;20598;-73
2023/06/02 13:57:10;;;;;;;3.47;1.70;;;;;;;;;;5061842;28;20043;-72
2023/06/02 13:59:36;;;;;;;3.63;1.77;;;;;;;;;;5050678;28;20036;-72
2023/06/02 14:02:01;;;;;;;2.85;1.52;;;;;;;;;;5050335;28;20044;-72
2023/06/02 14:04:27;;;;;;;4.22;1.50;;;;;;;;;;5058722;28;20400;-73
2023/06/02 14:06:53;;;;;;;2.83;1.30;;;;;;;;;;5045990;28;20040;-72
2023/06/02 14:09:19;;;;;;;4.22;1.52;;;;;;;;;;5056882;28;20036;-73
2023/06/02 14:11:44;;;;;;;1.70;1.30;;;;;;;;;;5056254;28;20196;-73
2023/06/02 14:14:11;;;;;;;3.42;1.75;;;;;;;;;;5046740;28;20805;-73
2023/06/02 14:16:37;;;;;;;4.03;1.58;;;;;;;;;;5050350;28;20040;-72
2023/06/02 14:19:03;;;;;;;5.25;1.60;;;;;;;;;;5053935;28;20510;-73
2023/06/02 14:21:29;;;;;;;5.20;1.73;;;;;;;;;;5047255;28;20071;-73
2023/06/02 14:23:54;;;;;;;4.18;1.55;;;;;;;;;;5054959;28;20097;-72
2023/06/02 14:26:20;;;;;;;3.03;1.60;;;;;;;;;;5042782;28;20120;-73
2023/06/02 14:28:46;;;;;;;6.65;1.50;;;;;;;;;;5054169;28;20699;-73
2023/06/02 14:31:11;;;;;;;4.50;1.70;;;;;;;;;;5053707;28;20048;-72
2023/06/02 14:33:37;;;;;;;4.25;1.30;;;;;;;;;;5057220;28;20084;-73
2023/06/02 14:36:02;;;;;;;3.33;1.55;;;;;;;;;;5040874;28;20480;-72
2023/06/02 14:38:28;;;;;;;4.57;2.28;;;;;;;;;;5054216;28;20044;-72
2023/06/02 14:40:53;;;;;;;6.97;2.08;;;;;;;;;;5042457;28;20044;-72
2023/06/02 14:43:19;;;;;;;3.03;1.63;;;;;;;;;;5049872;28;20075;-72
2023/06/02 14:45:44;;;;;;;4.45;1.73;;;;;;;;;;5056793;28;20582;-72